Time;durP1;ratioP1;P1;durP2;ratioP2;P2;SDS_P1;SDS_P2;PMS_P1;PMS_P2;Temp;Humidity;BMP_temperature;BMP_pressure;BME280_temperature;BME280_humidity;BME280_pressure;Samples;Min_cycle;Max_cycle;Signal;HPM_P1;HPM_P2
2023/04/19 00:00:17;;;;;;;16.80;13.07;;;;;;;10.97;100.00;99945.50;5096387;28;20198;-78
2023/04/19 00:02:48;;;;;;;17.93;13.87;;;;;;;10.99;100.00;99944.47;5093258;28;20359;-79
2023/04/19 00:05:21;;;;;;;19.63;13.80;;;;;;;10.94;100.00;99943.03;5091823;28;20229;-79
2023/04/19 00:07:49;;;;;;;16.90;13.37;;;;;;;10.94;100.00;99941.22;5088240;28;20212;-79
2023/04/19 00:10:18;;;;;;;17.63;12.73;;;;;;;11.00;100.00;99927.66;5093374;28;20203;-79
2023/04/19 00:12:46;;;;;;;17.80;13.10;;;;;;;11.06;100.00;99923.81;5094782;28;20216;-79
2023/04/19 00:15:14;;;;;;;16.20;13.33;;;;;;;11.00;100.00;99927.66;5083884;28;20208;-79
2023/04/19 00:17:43;;;;;;;18.77;13.30;;;;;;;11.10;100.00;99928.03;5093240;28;20192;-79
2023/04/19 00:20:12;;;;;;;18.70;13.00;;;;;;;11.17;100.00;99922.28;5087487;28;20256;-79
2023/04/19 00:22:41;;;;;;;16.73;13.10;;;;;;;11.15;100.00;99928.63;5092676;28;20686;-80
2023/04/19 00:25:10;;;;;;;17.83;13.03;;;;;;;11.17;100.00;99916.97;5091030;28;20188;-79
2023/04/19 00:27:38;;;;;;;17.27;12.50;;;;;;;11.31;100.00;99913.59;5009758;28;20194;-79
2023/04/19 00:30:07;;;;;;;17.03;13.27;;;;;;;11.24;100.00;99914.84;5010026;28;20190;-79
2023/04/19 00:32:35;;;;;;;17.13;11.83;;;;;;;11.35;100.00;99916.91;5008159;28;20214;-79
2023/04/19 00:35:04;;;;;;;16.13;11.73;;;;;;;11.38;100.00;99916.72;5006325;28;20353;-79
2023/04/19 00:37:32;;;;;;;17.33;12.93;;;;;;;11.36;100.00;99916.81;5008112;28;20249;-79
2023/04/19 00:40:03;;;;;;;19.07;13.03;;;;;;;11.32;100.00;99917.94;5006642;28;20206;-80
2023/04/19 00:42:32;;;;;;;16.03;12.73;;;;;;;11.32;100.00;99909.13;5012065;28;20198;-79
2023/04/19 00:45:00;;;;;;;14.90;12.37;;;;;;;11.34;100.00;99905.44;5018061;28;20265;-79
2023/04/19 00:47:28;;;;;;;18.23;14.03;;;;;;;11.37;100.00;99907.06;5083270;28;20230;-79
2023/04/19 00:49:57;;;;;;;15.60;12.90;;;;;;;11.47;100.00;99911.78;5095346;28;20283;-79
2023/04/19 00:52:26;;;;;;;16.77;12.87;;;;;;;11.37;100.00;99901.75;5092226;28;20216;-80
2023/04/19 00:54:55;;;;;;;14.73;12.20;;;;;;;11.43;100.00;99904.94;5095248;28;20203;-79
2023/04/19 00:57:25;;;;;;;16.00;12.70;;;;;;;11.46;100.00;99906.56;5088828;28;20207;-80
2023/04/19 00:59:55;;;;;;;16.03;12.33;;;;;;;11.32;100.00;99902.03;5092332;28;20190;-79
2023/04/19 01:02:23;;;;;;;16.33;12.50;;;;;;;11.36;100.00;99900.06;5094721;28;20647;-80
2023/04/19 01:04:52;;;;;;;17.67;12.67;;;;;;;11.36;100.00;99905.38;5098244;28;20752;-79
2023/04/19 01:07:20;;;;;;;19.13;12.47;;;;;;;11.45;100.00;99889.78;5095726;28;20196;-79
2023/04/19 01:09:49;;;;;;;16.73;12.77;;;;;;;11.35;100.00;99896.56;5086589;28;20199;-79
2023/04/19 01:12:17;;;;;;;14.07;11.93;;;;;;;11.21;100.00;99891.16;5088563;28;20215;-78
2023/04/19 01:14:47;;;;;;;15.20;11.90;;;;;;;11.30;100.00;99895.13;5009873;28;20199;-79
2023/04/19 01:17:16;;;;;;;17.23;12.40;;;;;;;11.36;100.00;99889.44;5010140;28;20201;-79
2023/04/19 01:19:46;;;;;;;16.07;12.90;;;;;;;11.02;100.00;99885.16;5007577;28;20206;-79
2023/04/19 01:22:18;;;;;;;13.30;11.60;;;;;;;11.19;100.00;99890.38;5012456;28;20191;-79
2023/04/19 01:24:46;;;;;;;16.90;12.00;;;;;;;10.85;100.00;99894.84;5009874;28;20551;-79
2023/04/19 01:27:16;;;;;;;15.20;12.80;;;;;;;10.91;100.00;99893.69;5008550;28;20245;-79
2023/04/19 01:29:44;;;;;;;15.67;12.00;;;;;;;10.97;100.00;99897.78;5005471;28;20210;-79
2023/04/19 01:32:13;;;;;;;15.03;12.00;;;;;;;11.00;100.00;99898.50;5027835;28;20218;-79
2023/04/19 01:34:41;;;;;;;14.23;11.83;;;;;;;10.92;100.00;99887.44;5090622;28;20200;-79
2023/04/19 01:37:10;;;;;;;16.97;12.47;;;;;;;10.95;100.00;99889.91;5090155;28;20215;-79
2023/04/19 01:39:39;;;;;;;17.60;12.73;;;;;;;10.98;100.00;99892.41;5094180;28;20203;-79
2023/04/19 01:42:07;;;;;;;15.50;12.43;;;;;;;11.03;100.00;99886.88;5051191;28;20192;-79
2023/04/19 01:44:36;;;;;;;15.13;12.87;;;;;;;10.93;100.00;99881.19;5048092;28;20197;-79
2023/04/19 01:47:05;;;;;;;19.30;13.30;;;;;;;10.93;100.00;99888.28;5051923;28;20259;-79
2023/04/19 01:49:33;;;;;;;17.30;12.90;;;;;;;10.96;100.00;99880.16;5051408;28;20205;-79
2023/04/19 01:52:02;;;;;;;16.77;12.77;;;;;;;11.04;100.00;99880.63;5048585;28;20217;-79
2023/04/19 01:54:30;;;;;;;15.83;12.00;;;;;;;11.06;100.00;99878.72;5051758;28;20189;-78
2023/04/19 01:57:00;;;;;;;16.87;12.30;;;;;;;10.97;100.00;99882.72;5050422;28;20195;-79
2023/04/19 01:59:28;;;;;;;14.97;12.40;;;;;;;10.83;100.00;99882.63;5044133;28;20239;-78
2023/04/19 02:01:56;;;;;;;15.40;13.10;;;;;;;10.94;100.00;99877.59;5055457;28;20250;-79
2023/04/19 02:04:26;;;;;;;15.10;12.57;;;;;;;10.78;100.00;99882.00;5089527;28;20267;-79
2023/04/19 02:06:54;;;;;;;15.33;13.47;;;;;;;10.81;100.00;99873.91;5011420;28;20252;-79
2023/04/19 02:09:23;;;;;;;17.97;13.37;;;;;;;10.79;100.00;99871.31;5002255;28;20244;-79
2023/04/19 02:11:51;;;;;;;15.80;12.50;;;;;;;10.75;100.00;99868.94;5006889;28;20700;-79
2023/04/19 02:14:21;;;;;;;18.70;14.13;;;;;;;10.64;100.00;99869.50;5011701;28;20241;-78
2023/04/19 02:16:49;;;;;;;17.43;14.10;;;;;;;10.73;100.00;99871.66;5011865;28;20249;-79
2023/04/19 02:19:17;;;;;;;17.03;13.17;;;;;;;10.72;100.00;99859.34;5010102;28;20203;-78
2023/04/19 02:21:47;;;;;;;17.53;13.40;;;;;;;10.58;100.00;99864.50;5007528;28;20248;-78
2023/04/19 02:24:15;;;;;;;15.50;13.10;;;;;;;10.64;100.00;99864.22;5024102;28;20192;-78
2023/04/19 02:26:44;;;;;;;18.90;13.37;;;;;;;10.74;100.00;99854.81;5091974;28;20195;-79
2023/04/19 02:29:12;;;;;;;17.03;12.83;;;;;;;10.75;100.00;99853.03;5087812;28;20248;-79
2023/04/19 02:31:44;;;;;;;15.73;12.53;;;;;;;10.73;100.00;99855.78;5082567;28;20252;-78
2023/04/19 02:34:12;;;;;;;16.57;13.40;;;;;;;10.74;100.00;99854.81;5085013;28;20208;-78
2023/04/19 02:36:41;;;;;;;17.23;13.63;;;;;;;10.62;100.00;99854.63;5090293;28;20195;-79
2023/04/19 02:39:09;;;;;;;19.27;13.33;;;;;;;10.69;100.00;99846.25;5093300;28;20192;-78
2023/04/19 02:41:37;;;;;;;18.77;13.27;;;;;;;10.69;100.00;99853.34;5087723;28;20245;-78
2023/04/19 02:44:05;;;;;;;17.57;13.57;;;;;;;10.47;100.00;99843.91;5082898;28;20199;-78
2023/04/19 02:46:33;;;;;;;16.37;13.13;;;;;;;10.58;100.00;99844.19;5086125;28;20246;-78
2023/04/19 02:49:03;;;;;;;18.00;13.77;;;;;;;10.56;100.00;99842.56;5093152;28;20286;-79
2023/04/19 02:51:34;;;;;;;18.47;13.60;;;;;;;10.44;100.00;99848.50;5090028;28;20280;-78
2023/04/19 02:54:02;;;;;;;18.50;14.23;;;;;;;10.55;100.00;99838.19;5092241;28;20256;-78
2023/04/19 02:56:30;;;;;;;19.10;14.10;;;;;;;10.51;100.00;99845.44;5090791;28;20208;-78
2023/04/19 02:59:00;;;;;;;19.63;14.80;;;;;;;10.58;100.00;99833.59;5093799;28;20203;-78
2023/04/19 03:01:29;;;;;;;18.90;13.63;;;;;;;10.54;100.00;99825.91;5092297;28;20207;-79
2023/04/19 03:03:58;;;;;;;17.90;13.90;;;;;;;10.43;100.00;99829.13;5092962;28;20219;-79
2023/04/19 03:06:28;;;;;;;18.67;14.53;;;;;;;10.42;100.00;99829.16;5096699;28;20249;-78
2023/04/19 03:08:56;;;;;;;18.50;14.27;;;;;;;10.53;100.00;99827.69;5093367;28;20200;-78
2023/04/19 03:11:25;;;;;;;18.27;14.30;;;;;;;10.45;100.00;99824.59;5086061;28;20199;-79
2023/04/19 03:13:54;;;;;;;20.63;14.90;;;;;;;10.38;100.00;99823.19;5096409;28;20705;-78
2023/04/19 03:16:25;;;;;;;17.67;14.17;;;;;;;10.54;100.00;99818.81;5085817;28;20273;-78
2023/04/19 03:18:54;;;;;;;21.37;15.10;;;;;;;10.48;100.00;99831.50;5096304;28;20196;-78
2023/04/19 03:21:26;;;;;;;17.43;13.67;;;;;;;10.45;100.00;99821.09;5096215;28;20195;-78
2023/04/19 03:23:56;;;;;;;20.87;13.77;;;;;;;10.36;100.00;99817.13;5093804;28;20206;-79
2023/04/19 03:26:25;;;;;;;17.93;13.13;;;;;;;10.40;100.00;99816.00;5086670;28;20195;-79
2023/04/19 03:28:54;;;;;;;16.07;13.13;;;;;;;10.29;100.00;99813.06;5089663;28;20235;-78
2023/04/19 03:31:23;;;;;;;17.97;12.97;;;;;;;10.35;100.00;99811.91;5090046;28;20331;-78
2023/04/19 03:33:51;;;;;;;16.10;13.27;;;;;;;10.36;100.00;99811.81;5093415;28;20302;-78
2023/04/19 03:36:19;;;;;;;18.83;13.67;;;;;;;10.37;100.00;99810.88;5098621;28;20204;-78
2023/04/19 03:38:47;;;;;;;17.93;13.10;;;;;;;10.36;100.00;99806.53;5095715;28;20643;-78
2023/04/19 03:41:21;;;;;;;15.73;13.60;;;;;;;10.26;100.00;99805.31;5098223;28;20188;-78
2023/04/19 03:43:49;;;;;;;18.43;14.27;;;;;;;10.30;100.00;99804.19;5095938;28;20195;-79
2023/04/19 03:46:20;;;;;;;18.03;13.70;;;;;;;10.38;100.00;99798.50;5094048;28;20195;-79
2023/04/19 03:48:48;;;;;;;18.60;14.27;;;;;;;10.40;100.00;99805.41;5096728;28;20206;-78
2023/04/19 03:51:17;;;;;;;16.43;12.97;;;;;;;10.36;100.00;99797.72;5094242;28;20249;-78
2023/04/19 03:53:45;;;;;;;17.43;13.20;;;;;;;10.47;100.00;99800.66;5092725;28;20224;-79
2023/04/19 03:56:14;;;;;;;16.63;12.47;;;;;;;10.41;100.00;99793.88;5094833;28;20768;-78
2023/04/19 03:58:44;;;;;;;18.07;13.33;;;;;;;10.45;100.00;99794.59;5088932;28;20188;-79
2023/04/19 04:01:18;;;;;;;16.37;12.63;;;;;;;10.55;100.00;99790.53;5100108;28;20256;-78
2023/04/19 04:03:49;;;;;;;17.50;13.20;;;;;;;10.33;100.00;99801.41;5096982;28;20231;-79
2023/04/19 04:06:17;;;;;;;15.27;11.87;;;;;;;10.26;100.00;99790.28;5096446;28;20204;-78
2023/04/19 04:08:46;;;;;;;16.90;12.67;;;;;;;10.18;100.00;99792.44;5094470;28;20203;-78
2023/04/19 04:11:14;;;;;;;16.37;11.67;;;;;;;10.26;100.00;99782.34;5087440;28;20738;-78
2023/04/19 04:13:46;;;;;;;14.43;11.70;;;;;;;10.26;100.00;99787.63;5096101;28;20216;-78
2023/04/19 04:16:14;;;;;;;16.43;10.73;;;;;;;10.26;100.00;99786.78;5088436;28;20241;-78
2023/04/19 04:18:42;;;;;;;16.27;11.53;;;;;;;10.23;100.00;99787.78;5097466;28;20241;-78
2023/04/19 04:21:10;;;;;;;12.87;10.23;;;;;;;10.30;100.00;99794.47;5096825;28;20225;-78
2023/04/19 04:23:38;;;;;;;14.63;9.80;;;;;;;10.26;100.00;99798.22;5096993;28;20192;-78
2023/04/19 04:26:08;;;;;;;13.83;9.87;;;;;;;10.37;100.00;99791.50;5093415;28;20196;-78
2023/04/19 04:28:36;;;;;;;12.17;9.60;;;;;;;10.45;100.00;99787.50;5094709;28;20237;-78
2023/04/19 04:31:11;;;;;;;11.83;8.90;;;;;;;10.11;100.00;99783.09;5095135;28;20426;-79
2023/04/19 04:33:40;;;;;;;11.10;8.30;;;;;;;10.19;100.00;99799.44;5097590;28;20211;-78
2023/04/19 04:36:10;;;;;;;13.03;9.23;;;;;;;10.26;100.00;99792.91;5088849;28;20196;-78
2023/04/19 04:38:38;;;;;;;11.90;8.20;;;;;;;10.32;100.00;99792.56;5091147;28;20195;-78
2023/04/19 04:41:07;;;;;;;10.33;8.10;;;;;;;10.44;100.00;99798.19;5091149;28;20192;-79
2023/04/19 04:43:37;;;;;;;10.10;8.10;;;;;;;10.27;100.00;99789.34;5090101;28;20662;-78
2023/04/19 04:46:07;;;;;;;9.43;7.13;;;;;;;10.22;100.00;99793.16;5097202;28;20217;-79
2023/04/19 04:48:36;;;;;;;10.40;7.70;;;;;;;10.31;100.00;99793.53;5094756;28;20357;-79
2023/04/19 04:51:04;;;;;;;9.73;7.20;;;;;;;10.11;100.00;99787.53;5100559;28;20198;-79
2023/04/19 04:53:33;;;;;;;9.80;7.03;;;;;;;10.14;100.00;99798.84;5095438;28;20215;-79
2023/04/19 04:56:01;;;;;;;9.03;6.83;;;;;;;10.09;100.00;99795.56;5090457;28;20246;-79
2023/04/19 04:58:30;;;;;;;10.20;6.60;;;;;;;10.04;100.00;99794.94;5094279;28;20203;-79
2023/04/19 05:00:58;;;;;;;7.63;6.03;;;;;;;10.17;100.00;99787.22;5094171;28;20690;-79
2023/04/19 05:03:28;;;;;;;10.40;6.90;;;;;;;10.09;100.00;99784.09;5094933;28;20222;-79
2023/04/19 05:05:57;;;;;;;9.53;5.93;;;;;;;10.09;100.00;99792.91;5056876;28;20196;-79
2023/04/19 05:08:25;;;;;;;9.27;6.33;;;;;;;10.05;100.00;99799.31;5093487;28;20331;-79
2023/04/19 05:10:54;;;;;;;7.47;6.03;;;;;;;10.10;100.00;99788.47;5097901;28;20197;-80
2023/04/19 05:13:22;;;;;;;7.67;5.97;;;;;;;10.00;100.00;99793.38;5094228;28;20627;-79
2023/04/19 05:15:50;;;;;;;7.33;6.33;;;;;;;10.05;100.00;99786.06;5097576;28;20256;-79
2023/04/19 05:18:18;;;;;;;7.23;5.67;;;;;;;10.02;100.00;99791.50;5097121;28;20249;-79
2023/04/19 05:20:48;;;;;;;9.17;6.30;;;;;;;9.94;100.00;99786.63;5097593;28;20249;-79
2023/04/19 05:23:17;;;;;;;7.93;6.47;;;;;;;9.85;100.00;99795.03;5089759;28;20245;-79
2023/04/19 05:25:46;;;;;;;12.63;5.53;;;;;;;9.89;100.00;99791.28;5087571;28;20200;-79
2023/04/19 05:28:14;;;;;;;8.67;5.93;;;;;;;9.96;100.00;99794.47;5095783;28;20753;-79
2023/04/19 05:30:42;;;;;;;6.83;5.23;;;;;;;10.04;100.00;99794.94;5091718;28;20248;-79
2023/04/19 05:33:11;;;;;;;6.40;4.97;;;;;;;10.06;100.00;99793.06;5091480;28;20192;-79
2023/04/19 05:35:39;;;;;;;6.53;5.20;;;;;;;10.03;100.00;99788.78;5093061;28;20279;-79
2023/04/19 05:38:09;;;;;;;5.90;4.23;;;;;;;9.97;100.00;99789.09;5097558;28;20195;-79
2023/04/19 05:40:38;;;;;;;8.50;5.10;;;;;;;9.78;100.00;99784.84;5092311;28;20188;-79
2023/04/19 05:43:07;;;;;;;7.13;4.53;;;;;;;9.81;100.00;99782.88;5095164;28;20234;-79
2023/04/19 05:45:35;;;;;;;8.43;4.10;;;;;;;9.67;100.00;99775.66;5091895;28;20268;-79
2023/04/19 05:48:04;;;;;;;7.70;4.70;;;;;;;9.78;100.00;99784.84;5089294;28;20188;-79
2023/04/19 05:50:32;;;;;;;9.43;4.80;;;;;;;9.75;100.00;99783.22;5089315;28;20278;-79
2023/04/19 05:53:00;;;;;;;8.20;4.97;;;;;;;9.66;100.00;99770.44;5094056;28;20191;-79
2023/04/19 05:55:30;;;;;;;6.13;4.83;;;;;;;9.70;100.00;99772.00;5089561;28;20345;-78
2023/04/19 05:57:58;;;;;;;7.63;5.10;;;;;;;9.75;100.00;99770.84;5095029;28;20200;-79
2023/04/19 06:00:27;;;;;;;6.67;4.70;;;;;;;9.70;100.00;99774.63;5096437;28;20206;-79
2023/04/19 06:02:56;;;;;;;6.73;5.00;;;;;;;9.67;100.00;99772.16;5092499;28;20211;-79
2023/04/19 06:05:24;;;;;;;7.50;4.80;;;;;;;9.68;100.00;99781.78;5090828;28;20712;-79
2023/04/19 06:07:55;;;;;;;6.50;4.80;;;;;;;9.59;100.00;99776.97;5089626;28;20699;-79
2023/04/19 06:10:31;;;;;;;6.47;4.73;;;;;;;9.64;100.00;99785.50;5095732;28;20272;-79
2023/04/19 06:13:19;;;;;;;7.90;4.83;;;;;;;9.62;100.00;99782.94;5095808;28;20231;-80
2023/04/19 06:15:47;;;;;;;7.93;5.30;;;;;;;9.56;100.00;99779.78;5094308;28;20211;-79
2023/04/19 06:18:16;;;;;;;5.23;4.73;;;;;;;9.65;100.00;99782.81;5095287;28;20223;-78
2023/04/19 06:20:47;;;;;;;6.33;5.20;;;;;;;9.56;100.00;99787.72;5091338;28;20200;-79
2023/04/19 06:23:17;;;;;;;5.83;4.50;;;;;;;9.66;100.00;99787.16;5085036;28;20207;-79
2023/04/19 06:25:47;;;;;;;8.77;5.80;;;;;;;9.59;100.00;99784.91;5088963;28;20192;-79
2023/04/19 06:28:16;;;;;;;11.53;7.83;;;;;;;9.64;100.00;99786.38;5087954;28;20717;-79
2023/04/19 06:30:44;;;;;;;11.17;7.93;;;;;;;9.80;100.00;99780.31;5090578;28;20275;-79
2023/04/19 06:33:12;;;;;;;6.27;5.07;;;;;;;9.83;100.00;99782.78;5088070;28;20215;-79
2023/04/19 06:35:40;;;;;;;6.47;5.70;;;;;;;9.85;100.00;99781.81;5088920;28;20294;-79
2023/04/19 06:38:09;;;;;;;7.33;5.40;;;;;;;9.86;100.00;99785.31;5084935;28;20698;-79
2023/04/19 06:40:37;;;;;;;8.57;5.50;;;;;;;9.86;100.00;99787.94;5093320;28;20204;-79
2023/04/19 06:43:06;;;;;;;9.70;7.20;;;;;;;9.94;100.00;99786.63;5092567;28;20207;-79
2023/04/19 06:45:35;;;;;;;7.87;6.80;;;;;;;10.02;100.00;99783.56;5093593;28;20639;-79
2023/04/19 06:48:03;;;;;;;7.57;6.50;;;;;;;10.16;100.00;99785.50;5090441;28;20227;-79
2023/04/19 06:50:32;;;;;;;5.83;5.23;;;;;;;10.23;100.00;99789.56;5090611;28;20222;-79
2023/04/19 06:53:00;;;;;;;7.43;5.10;;;;;;;10.08;100.00;99785.03;5089318;28;20253;-79
2023/04/19 06:55:31;;;;;;;10.53;5.63;;;;;;;10.21;100.00;99781.66;5093102;28;20218;-79
2023/04/19 06:58:00;;;;;;;5.73;5.13;;;;;;;10.16;100.00;99786.38;5085941;28;20188;-79
2023/04/19 07:00:30;;;;;;;7.30;4.73;;;;;;;10.18;100.00;99784.50;5093687;28;20245;-79
2023/04/19 07:03:00;;;;;;;7.93;5.37;;;;;;;10.29;100.00;99782.16;5092535;28;20642;-79
2023/04/19 07:05:29;;;;;;;6.77;5.40;;;;;;;10.21;100.00;99786.97;5086107;28;20219;-79
2023/04/19 07:07:57;;;;;;;7.30;5.10;;;;;;;10.32;100.00;99778.47;5085438;28;20324;-79
2023/04/19 07:10:25;;;;;;;6.30;4.87;;;;;;;10.48;100.00;99774.09;5089958;28;20278;-79
2023/04/19 07:12:54;;;;;;;6.70;4.87;;;;;;;10.53;100.00;99772.06;5084914;28;20264;-79
2023/04/19 07:15:22;;;;;;;6.43;5.00;;;;;;;10.79;100.00;99777.72;5091095;28;20281;-79
2023/04/19 07:17:52;;;;;;;9.20;5.27;;;;;;;10.95;100.00;99773.28;5056264;28;20511;-79
2023/04/19 07:20:20;;;;;;;8.20;4.80;;;;;;;11.10;100.00;99761.84;5089450;28;20199;-79
2023/04/19 07:22:49;;;;;;;9.17;5.53;;;;;;;11.10;100.00;99763.63;5032921;28;20193;-79
2023/04/19 07:25:17;;;;;;;7.30;5.00;;;;;;;10.84;100.00;99759.78;5027643;28;20210;-79
2023/04/19 07:27:45;;;;;;;7.30;5.20;;;;;;;11.03;100.00;99762.28;5030930;28;20190;-79
2023/04/19 07:30:14;;;;;;;7.27;5.67;;;;;;;11.03;100.00;99756.97;5028265;28;20231;-80
2023/04/19 07:32:42;;;;;;;5.73;5.03;;;;;;;10.63;100.00;99763.63;5029636;28;20213;-79
2023/04/19 07:35:12;;;;;;;6.90;5.33;;;;;;;10.61;100.00;99763.69;5024303;28;20237;-79
2023/04/19 07:37:40;;;;;;;6.50;5.17;;;;;;;10.48;100.00;99762.66;5023340;28;20205;-79
2023/04/19 07:40:10;;;;;;;8.57;5.40;;;;;;;10.53;100.00;99756.19;5039720;28;20204;-79
2023/04/19 07:42:39;;;;;;;9.87;5.53;;;;;;;10.66;100.00;99760.78;5084657;28;20199;-79
2023/04/19 07:45:08;;;;;;;8.43;5.83;;;;;;;10.65;100.00;99753.78;5089259;28;20195;-80
2023/04/19 07:47:38;;;;;;;9.83;5.30;;;;;;;10.64;100.00;99762.69;5085673;28;20211;-80
2023/04/19 07:50:08;;;;;;;8.40;5.50;;;;;;;10.83;100.00;99750.97;5092678;28;20249;-79
2023/04/19 07:52:37;;;;;;;8.10;5.77;;;;;;;11.09;100.00;99753.94;5087622;28;20196;-80
2023/04/19 07:55:07;;;;;;;7.93;5.97;;;;;;;11.13;100.00;99745.75;5085462;28;20667;-79
2023/04/19 07:57:35;;;;;;;7.97;5.13;;;;;;;11.20;100.00;99753.38;5085793;28;20225;-79
2023/04/19 08:00:05;;;;;;;8.57;5.73;;;;;;;11.15;100.00;99757.13;5088284;28;20245;-79
2023/04/19 08:02:33;;;;;;;6.80;5.13;;;;;;;11.39;100.00;99754.03;5087100;28;20204;-80
2023/04/19 08:05:02;;;;;;;8.03;5.60;;;;;;;11.05;100.00;99758.59;5087581;28;20231;-79
2023/04/19 08:07:30;;;;;;;9.67;5.80;;;;;;;11.11;100.00;99745.00;5080950;28;20200;-79
2023/04/19 08:10:00;;;;;;;7.63;5.70;;;;;;;11.00;100.00;99757.13;5083398;28;20215;-79
2023/04/19 08:12:28;;;;;;;6.30;5.03;;;;;;;10.99;100.00;99756.25;5083631;28;20219;-80
2023/04/19 08:15:10;;;;;;;6.63;5.33;;;;;;;11.20;100.00;99764.84;5091171;28;20382;-80
2023/04/19 08:17:58;;;;;;;8.63;5.60;;;;;;;11.47;100.00;99759.72;5092556;28;20619;-79
2023/04/19 08:20:26;;;;;;;7.10;5.27;;;;;;;11.62;100.00;99763.28;5088090;28;20256;-79
2023/04/19 08:22:55;;;;;;;7.90;6.20;;;;;;;11.70;100.00;99761.03;5087782;28;20196;-80
2023/04/19 08:25:27;;;;;;;8.50;6.37;;;;;;;11.43;100.00;99763.50;5096154;28;20231;-79
2023/04/19 08:27:56;;;;;;;7.97;5.77;;;;;;;11.49;100.00;99765.81;5091688;28;20200;-79
2023/04/19 08:30:24;;;;;;;8.97;6.50;;;;;;;11.72;100.00;99767.09;5090225;28;20207;-80
2023/04/19 08:32:52;;;;;;;9.57;6.67;;;;;;;11.61;100.00;99762.44;5095794;28;20207;-79
2023/04/19 08:35:24;;;;;;;8.97;6.87;;;;;;;11.54;100.00;99763.72;5096035;28;20207;-79
2023/04/19 08:37:52;;;;;;;6.97;6.03;;;;;;;11.68;100.00;99757.63;5092782;28;20195;-79
2023/04/19 08:40:21;;;;;;;9.30;6.53;;;;;;;11.81;100.00;99765.75;5090072;28;20206;-78
2023/04/19 08:42:50;;;;;;;7.60;6.40;;;;;;;12.11;100.00;99755.94;5091681;28;20203;-79
2023/04/19 08:45:21;;;;;;;10.70;8.00;;;;;;;12.35;100.00;99753.56;5091558;28;20211;-79
2023/04/19 08:47:52;;;;;;;8.93;6.93;;;;;;;12.33;100.00;99748.34;5093368;28;20247;-79
2023/04/19 08:50:29;;;;;;;10.07;6.30;;;;;;;12.17;100.00;99750.25;5095713;28;20230;-79
2023/04/19 08:53:12;;;;;;;8.60;5.87;;;;;;;12.36;100.00;99749.13;5094824;28;20222;-79
2023/04/19 08:55:57;;;;;;;11.27;6.37;;;;;;;12.08;100.00;99748.16;5092982;28;20312;-79
2023/04/19 08:58:47;;;;;;;8.80;5.80;;;;;;;12.22;100.00;99747.31;5095519;28;20722;-80
2023/04/19 09:01:18;;;;;;;10.87;6.60;;;;;;;12.30;100.00;99737.94;5095404;28;20260;-79
2023/04/19 09:04:04;;;;;;;7.63;5.90;;;;;;;12.15;100.00;99738.84;5090602;28;20227;-79
2023/04/19 09:06:53;;;;;;;9.33;5.43;;;;;;;12.68;100.00;99741.81;5095174;28;20287;-79
2023/04/19 09:09:25;;;;;;;10.17;6.30;;;;;;;12.44;100.00;99731.75;5089950;28;20199;-79
2023/04/19 09:11:58;;;;;;;6.97;5.03;;;;;;;12.81;100.00;99729.41;5094155;28;20248;-79
2023/04/19 09:14:30;;;;;;;9.97;5.57;;;;;;;12.89;100.00;99735.97;5086427;28;20200;-79
2023/04/19 09:17:12;;;;;;;7.63;5.43;;;;;;;12.59;100.00;99725.47;5094820;28;20219;-79
2023/04/19 09:19:50;;;;;;;7.13;5.57;;;;;;;12.74;100.00;99730.75;5091805;28;20195;-79
2023/04/19 09:22:19;;;;;;;7.97;6.30;;;;;;;12.47;100.00;99728.06;5091942;28;20195;-79
2023/04/19 09:24:47;;;;;;;11.00;5.83;;;;;;;12.74;100.00;99723.66;5094526;28;20250;-79
2023/04/19 09:27:26;;;;;;;7.53;5.20;;;;;;;12.20;100.00;99720.84;5094644;28;20192;-79
2023/04/19 09:29:59;;;;;;;7.73;5.57;;;;;;;12.56;100.00;99724.84;5097494;28;20191;-79
2023/04/19 09:32:30;;;;;;;7.87;5.20;;;;;;;12.56;99.79;99717.72;5092896;28;20245;-79
2023/04/19 09:35:00;;;;;;;8.63;5.33;;;;;;;12.70;97.49;99722.13;5096517;28;20223;-79
2023/04/19 09:37:29;;;;;;;7.53;5.50;;;;;;;12.85;94.28;99717.66;5088048;28;20674;-80
2023/04/19 09:40:25;;;;;;;8.20;5.37;;;;;;;12.87;94.62;99713.94;5097318;28;20267;-77
2023/04/19 09:42:54;;;;;;;10.00;5.90;;;;;;;12.97;92.79;99714.19;5097905;28;20195;-79
2023/04/19 09:45:28;;;;;;;8.60;5.37;;;;;;;13.23;91.91;99706.38;5094819;28;20249;-80
2023/04/19 09:48:02;;;;;;;5.53;4.50;;;;;;;13.36;88.40;99707.25;5094138;28;20286;-80
2023/04/19 09:50:31;;;;;;;7.10;5.10;;;;;;;13.33;84.95;99704.78;5094056;28;20311;-80
2023/04/19 09:53:06;;;;;;;8.20;5.33;;;;;;;13.59;84.65;99703.03;5096576;28;20261;-80
2023/04/19 09:55:37;;;;;;;6.80;4.90;;;;;;;13.65;81.53;99700.81;5091309;28;20245;-80
2023/04/19 09:58:24;;;;;;;7.93;4.60;;;;;;;14.00;78.06;99700.22;5097112;28;20191;-80
2023/04/19 10:01:05;;;;;;;6.23;4.40;;;;;;;14.06;78.58;99698.91;5092501;28;20195;-80
2023/04/19 10:03:44;;;;;;;6.10;4.33;;;;;;;13.70;75.09;99701.38;5092646;28;20292;-80
2023/04/19 10:06:16;;;;;;;6.73;4.00;;;;;;;13.80;71.94;99696.28;5090598;28;20231;-80
2023/04/19 10:09:05;;;;;;;8.53;4.53;;;;;;;14.20;71.66;99690.81;5097921;28;20298;-80
2023/04/19 10:11:39;;;;;;;4.50;3.97;;;;;;;14.42;68.79;99684.81;5092786;28;20192;-79
2023/04/19 10:14:11;;;;;;;5.00;3.40;;;;;;;13.87;68.20;99686.03;5099183;28;20191;-80
2023/04/19 10:16:40;;;;;;;8.17;3.50;;;;;;;14.17;68.40;99683.03;5097576;28;20231;-80
2023/04/19 10:19:11;;;;;;;6.03;3.50;;;;;;;14.82;62.07;99685.50;5097912;28;20198;-80
2023/04/19 10:21:42;;;;;;;4.53;3.60;;;;;;;14.86;63.03;99681.63;5089730;28;20206;-80
2023/04/19 10:24:14;;;;;;;5.10;3.93;;;;;;;14.74;62.93;99677.19;5097960;28;20249;-80
2023/04/19 10:27:10;;;;;;;5.57;3.60;;;;;;;14.80;59.72;99674.94;5095681;28;20203;-78
2023/04/19 10:29:55;;;;;;;5.93;3.80;;;;;;;15.28;58.37;99668.75;5058861;28;20199;-79
2023/04/19 10:32:27;;;;;;;4.53;3.53;;;;;;;15.09;57.31;99667.44;5104208;28;20693;-80
2023/04/19 10:34:55;;;;;;;6.57;3.33;;;;;;;15.72;55.43;99658.22;5109665;28;20199;-79
2023/04/19 10:37:26;;;;;;;4.07;3.17;;;;;;;15.70;55.65;99662.81;5096919;28;20215;-79
2023/04/19 10:39:55;;;;;;;4.17;3.20;;;;;;;15.86;54.90;99667.00;5055759;28;20188;-79
2023/04/19 10:42:23;;;;;;;3.17;2.87;;;;;;;15.70;53.30;99653.97;5091750;28;20187;-80
2023/04/19 10:45:33;;;;;;;4.33;2.90;;;;;;;15.23;53.38;99654.88;5087853;28;20191;-80
2023/04/19 10:48:05;;;;;;;3.40;2.67;;;;;;;15.48;54.04;99662.75;5080071;28;20247;-79
2023/04/19 10:50:57;;;;;;;4.23;2.30;;;;;;;15.93;48.54;99662.88;5084548;28;20230;-79
2023/04/19 10:53:47;;;;;;;3.43;2.70;;;;;;;15.12;52.36;99656.53;5088125;28;20213;-80
2023/04/19 10:56:16;;;;;;;4.83;2.80;;;;;;;15.63;50.19;99634.91;5081165;28;20206;-80
2023/04/19 10:59:21;;;;;;;4.93;2.70;;;;;;;15.57;50.32;99637.16;5093037;28;20200;-80
2023/04/19 11:01:52;;;;;;;5.27;2.80;;;;;;;15.70;49.16;99640.63;5090894;28;20203;-79
2023/04/19 11:04:46;;;;;;;4.70;2.70;;;;;;;15.70;48.22;99629.94;5086367;28;20227;-79
2023/04/19 11:07:17;;;;;;;3.93;2.63;;;;;;;16.23;48.70;99627.53;5089847;28;20196;-80
2023/04/19 11:09:46;;;;;;;2.50;2.13;;;;;;;16.31;46.19;99625.97;5085686;28;20188;-80
2023/04/19 11:12:15;;;;;;;4.47;2.60;;;;;;;16.59;45.71;99621.88;5042677;28;20307;-80
2023/04/19 11:14:45;;;;;;;4.83;2.37;;;;;;;15.93;45.86;99622.81;5048160;28;20193;-80
2023/04/19 11:17:19;;;;;;;3.80;2.50;;;;;;;16.31;44.92;99614.41;5050833;28;20213;-80
2023/04/19 11:19:56;;;;;;;3.73;2.23;;;;;;;16.44;43.31;99609.78;5041642;28;20197;-80
2023/04/19 11:22:27;;;;;;;3.83;2.20;;;;;;;16.65;45.55;99598.28;5050580;28;20196;-80
2023/04/19 11:24:55;;;;;;;5.73;2.50;;;;;;;15.90;47.45;99607.84;5048228;28;20197;-80
2023/04/19 11:27:24;;;;;;;5.17;3.00;;;;;;;15.86;47.13;99603.72;5047078;28;20201;-80
2023/04/19 11:30:03;;;;;;;4.30;2.40;;;;;;;15.62;45.19;99586.94;5023533;28;20221;-79
2023/04/19 11:32:32;;;;;;;4.47;2.50;;;;;;;15.83;45.06;99597.78;5092822;28;20665;-79
2023/04/19 11:35:07;;;;;;;3.27;2.20;;;;;;;16.20;42.72;99595.69;5089044;28;20227;-79
2023/04/19 11:37:39;;;;;;;2.83;2.33;;;;;;;16.59;41.76;99591.59;5092740;28;20262;-79